Time;durP1;ratioP1;P1;durP2;ratioP2;P2;SDS_P1;SDS_P2;PMS_P1;PMS_P2;Temp;Humidity;BMP_temperature;BMP_pressure;BME280_temperature;BME280_humidity;BME280_pressure;Samples;Min_cycle;Max_cycle;Signal;HPM_P1;HPM_P2
2024/01/04 00:01:15;;;;;;;11.90;1.95;;;9.30;99.90;;;;;;5050494;28;20044;-83
2024/01/04 00:03:41;;;;;;;8.45;2.22;;;9.30;99.90;;;;;;5050054;28;20044;-83
2024/01/04 00:06:07;;;;;;;4.72;1.95;;;9.30;99.90;;;;;;5031089;28;20040;-84
2024/01/04 00:08:33;;;;;;;6.70;2.40;;;9.40;99.90;;;;;;5045259;28;20076;-84
2024/01/04 00:11:02;;;;;;;11.43;2.50;;;9.40;99.90;;;;;;5044945;28;20025;-82
2024/01/04 00:13:28;;;;;;;10.25;2.45;;;9.40;99.90;;;;;;5047270;28;20037;-80
2024/01/04 00:15:53;;;;;;;7.38;2.35;;;9.40;99.90;;;;;;5049850;28;20056;-82
2024/01/04 00:18:19;;;;;;;8.35;2.50;;;9.40;99.90;;;;;;5052596;28;20037;-83
2024/01/04 00:20:44;;;;;;;5.35;2.10;;;9.40;99.90;;;;;;5047347;28;20085;-83
2024/01/04 00:23:10;;;;;;;5.93;1.88;;;9.40;99.90;;;;;;5060530;28;20096;-82
2024/01/04 00:25:36;;;;;;;7.05;1.92;;;9.40;99.90;;;;;;5035787;28;20037;-81
2024/01/04 00:28:01;;;;;;;8.48;2.72;;;9.40;99.90;;;;;;5059991;28;20025;-82
2024/01/04 00:30:27;;;;;;;5.03;1.75;;;9.40;99.90;;;;;;5059199;28;20376;-82
2024/01/04 00:32:53;;;;;;;7.78;1.50;;;9.40;99.90;;;;;;5051331;28;20025;-83
2024/01/04 00:35:18;;;;;;;3.75;1.45;;;9.40;99.90;;;;;;5055331;28;20088;-84
2024/01/04 00:37:44;;;;;;;5.55;1.17;;;9.40;99.90;;;;;;5049015;28;20052;-80
2024/01/04 00:40:10;;;;;;;6.95;1.50;;;9.50;99.90;;;;;;5056075;28;20036;-84
2024/01/04 00:42:36;;;;;;;11.32;1.77;;;9.50;99.90;;;;;;5031225;28;20033;-83
2024/01/04 00:45:03;;;;;;;7.32;1.58;;;9.50;99.90;;;;;;5048025;28;20026;-82
2024/01/04 00:47:28;;;;;;;7.40;1.90;;;9.50;99.90;;;;;;5041932;28;20061;-81
2024/01/04 00:49:54;;;;;;;6.13;1.23;;;9.50;99.90;;;;;;5029810;28;20045;-82
2024/01/04 00:52:19;;;;;;;4.30;1.42;;;9.50;99.90;;;;;;5056802;28;20041;-84
2024/01/04 00:54:45;;;;;;;6.03;1.67;;;9.50;99.90;;;;;;5061719;28;20033;-83
2024/01/04 00:57:11;;;;;;;6.50;1.70;;;9.50;99.90;;;;;;5040064;28;20430;-83
2024/01/04 00:59:36;;;;;;;9.35;1.88;;;9.50;99.90;;;;;;5043449;28;20099;-81
2024/01/04 01:02:02;;;;;;;7.05;1.85;;;9.50;99.90;;;;;;5042220;28;20026;-83
2024/01/04 01:04:28;;;;;;;8.43;2.03;;;9.40;99.90;;;;;;5019076;28;20471;-81
2024/01/04 01:06:53;;;;;;;6.38;1.70;;;9.40;99.90;;;;;;5051640;28;20036;-83
2024/01/04 01:09:19;;;;;;;7.85;1.92;;;9.50;99.90;;;;;;5046946;28;20041;-83
2024/01/04 01:11:45;;;;;;;4.38;1.27;;;9.40;99.90;;;;;;5049310;28;20029;-83
2024/01/04 01:14:10;;;;;;;5.22;2.15;;;9.50;99.90;;;;;;5042927;28;20099;-82
2024/01/04 01:16:36;;;;;;;5.18;1.70;;;9.50;99.90;;;;;;5044523;28;20037;-82
2024/01/04 01:19:02;;;;;;;6.25;1.77;;;9.40;99.90;;;;;;5010285;28;20037;-82
2024/01/04 01:21:28;;;;;;;6.68;1.50;;;9.50;99.90;;;;;;5066539;28;20096;-82
2024/01/04 01:23:54;;;;;;;7.75;1.90;;;9.50;99.90;;;;;;5055768;28;20030;-82
2024/01/04 01:26:20;;;;;;;8.57;1.90;;;9.50;99.90;;;;;;5062952;28;20028;-82
2024/01/04 01:28:45;;;;;;;8.48;2.17;;;9.50;99.90;;;;;;5076964;28;20107;-83
2024/01/04 01:31:11;;;;;;;10.45;2.30;;;9.50;99.90;;;;;;5064686;28;20041;-81
2024/01/04 01:33:40;;;;;;;7.72;2.30;;;9.50;99.90;;;;;;5055247;28;20475;-82
2024/01/04 01:36:07;;;;;;;7.13;2.05;;;9.50;99.90;;;;;;5054355;28;20037;-82
2024/01/04 01:38:32;;;;;;;8.70;2.05;;;9.50;99.90;;;;;;5053107;28;20127;-82
2024/01/04 01:40:58;;;;;;;11.10;2.22;;;9.50;99.90;;;;;;5071542;28;20033;-82
2024/01/04 01:43:23;;;;;;;4.15;1.60;;;9.50;99.90;;;;;;5031245;28;20034;-81
2024/01/04 01:45:49;;;;;;;6.13;1.58;;;9.50;99.90;;;;;;5042153;28;20032;-82
2024/01/04 01:48:15;;;;;;;7.95;2.13;;;9.50;99.90;;;;;;5041669;28;20137;-83
2024/01/04 01:50:41;;;;;;;7.32;2.30;;;9.50;99.90;;;;;;5049509;28;20060;-83
2024/01/04 01:53:07;;;;;;;8.55;1.88;;;9.50;99.90;;;;;;5029105;28;20053;-83
2024/01/04 01:55:33;;;;;;;3.38;1.42;;;9.50;99.90;;;;;;5052610;28;20029;-83
2024/01/04 01:57:59;;;;;;;9.07;2.58;;;9.50;99.90;;;;;;5046484;28;20033;-83
2024/01/04 02:00:25;;;;;;;5.60;1.98;;;9.50;99.90;;;;;;5051250;28;20041;-82
2024/01/04 02:02:52;;;;;;;7.80;2.15;;;9.60;99.90;;;;;;5045995;28;20375;-83
2024/01/04 02:05:17;;;;;;;7.18;2.08;;;9.60;99.90;;;;;;5037986;28;20045;-81
2024/01/04 02:07:44;;;;;;;6.10;2.08;;;9.60;99.90;;;;;;5023023;28;20479;-84
2024/01/04 02:10:09;;;;;;;7.63;1.90;;;9.60;99.90;;;;;;5056725;28;20037;-83
2024/01/04 02:12:35;;;;;;;10.98;2.10;;;9.60;99.90;;;;;;5053877;28;20033;-82
2024/01/04 02:15:01;;;;;;;7.15;1.90;;;9.60;99.90;;;;;;5019878;28;20407;-80
2024/01/04 02:17:28;;;;;;;9.63;1.73;;;9.50;99.90;;;;;;5038092;28;20033;-82
2024/01/04 02:19:56;;;;;;;9.90;2.17;;;9.50;99.90;;;;;;5055248;28;20116;-82
2024/01/04 02:22:21;;;;;;;8.75;1.67;;;9.50;99.90;;;;;;5055217;28;20034;-83
2024/01/04 02:24:47;;;;;;;8.35;1.92;;;9.50;99.90;;;;;;5060143;28;20033;-82
2024/01/04 02:27:13;;;;;;;7.57;2.03;;;9.40;99.90;;;;;;5064517;28;20040;-81
2024/01/04 02:29:39;;;;;;;6.70;1.77;;;9.40;99.90;;;;;;5060912;28;20083;-83
2024/01/04 02:32:05;;;;;;;7.60;1.83;;;9.40;99.90;;;;;;5055477;28;20029;-84
2024/01/04 02:34:32;;;;;;;10.00;2.35;;;9.40;99.90;;;;;;5047732;28;20025;-83
2024/01/04 02:36:58;;;;;;;12.57;2.35;;;9.40;99.90;;;;;;5046689;28;20033;-82
2024/01/04 02:39:23;;;;;;;7.95;1.90;;;9.40;99.90;;;;;;5062591;28;20040;-83
2024/01/04 02:41:49;;;;;;;10.45;2.20;;;9.40;99.90;;;;;;5075524;28;20033;-82
2024/01/04 02:44:17;;;;;;;9.23;2.30;;;9.40;99.90;;;;;;5415276;22;20105;-84
2024/01/04 02:46:43;;;;;;;7.00;2.28;;;9.40;99.90;;;;;;5030103;28;20030;-81
2024/01/04 02:51:44;;;;;;;10.18;2.17;;;9.40;99.90;;;;;;5609235;22;20062;-81
2024/01/04 02:54:10;;;;;;;13.65;2.63;;;9.40;99.90;;;;;;5015299;28;20094;-82
2024/01/04 02:56:36;;;;;;;10.02;2.45;;;9.40;99.90;;;;;;5012228;28;20097;-82
2024/01/04 02:59:02;;;;;;;6.10;2.00;;;9.40;99.90;;;;;;5005933;28;20418;-83
2024/01/04 03:01:28;;;;;;;8.38;2.58;;;9.40;99.90;;;;;;5004465;28;20044;-81
2024/01/04 03:03:55;;;;;;;11.65;3.33;;;9.40;99.90;;;;;;5002700;28;20061;-82
2024/01/04 03:06:27;;;;;;;10.85;2.58;;;9.40;99.90;;;;;;4997821;28;20058;-83
2024/01/04 03:08:53;;;;;;;11.18;2.53;;;9.40;99.90;;;;;;4981474;28;20117;-82
2024/01/04 03:11:19;;;;;;;11.25;2.80;;;9.40;99.90;;;;;;5002262;28;20416;-82
2024/01/04 03:13:48;;;;;;;11.95;2.67;;;9.50;99.90;;;;;;5001424;28;20086;-82
2024/01/04 03:16:19;;;;;;;9.30;2.83;;;9.50;99.90;;;;;;4999632;28;20039;-83
2024/01/04 03:18:45;;;;;;;10.18;2.70;;;9.50;99.90;;;;;;5006052;28;20482;-82
2024/01/04 03:21:11;;;;;;;10.90;3.45;;;9.50;99.90;;;;;;5004310;28;20067;-82
2024/01/04 03:23:36;;;;;;;11.95;3.78;;;9.50;99.90;;;;;;5004882;28;20135;-82
2024/01/04 03:26:02;;;;;;;8.20;3.30;;;9.50;99.90;;;;;;5012219;28;20040;-81
2024/01/04 03:28:28;;;;;;;8.70;2.80;;;9.50;99.90;;;;;;5004205;28;20022;-82
2024/01/04 03:30:53;;;;;;;6.68;3.13;;;9.50;99.90;;;;;;5001964;28;20038;-83
2024/01/04 03:33:19;;;;;;;9.75;3.20;;;9.50;99.90;;;;;;5004911;28;20504;-84
2024/01/04 03:35:45;;;;;;;12.55;3.13;;;9.50;99.90;;;;;;5001704;28;20467;-83
2024/01/04 03:38:10;;;;;;;10.20;3.75;;;9.50;99.90;;;;;;4979756;28;20030;-83
2024/01/04 03:40:36;;;;;;;8.32;2.40;;;9.50;99.90;;;;;;4996270;28;20034;-84
2024/01/04 03:43:03;;;;;;;5.30;2.33;;;9.50;99.90;;;;;;4993086;28;20026;-84
2024/01/04 03:45:30;;;;;;;14.48;2.50;;;9.40;99.90;;;;;;4997812;28;20405;-83
2024/01/04 03:47:56;;;;;;;10.48;3.17;;;9.40;99.90;;;;;;4980742;28;20121;-83
2024/01/04 03:50:22;;;;;;;7.75;2.53;;;9.40;99.90;;;;;;5008177;28;20034;-83
2024/01/04 03:52:47;;;;;;;12.52;2.40;;;9.40;99.90;;;;;;5000741;28;20061;-82
2024/01/04 03:55:15;;;;;;;9.73;2.67;;;9.30;99.90;;;;;;4997432;28;20054;-84
2024/01/04 03:57:43;;;;;;;8.38;2.20;;;9.30;99.90;;;;;;4993745;28;20045;-83
2024/01/04 04:00:09;;;;;;;7.10;2.00;;;9.30;99.90;;;;;;4992228;28;20062;-82
2024/01/04 04:02:35;;;;;;;5.38;1.60;;;9.30;99.90;;;;;;4992586;28;20057;-83
2024/01/04 04:05:00;;;;;;;8.70;2.13;;;9.30;99.90;;;;;;4993179;28;20034;-83
2024/01/04 04:07:26;;;;;;;6.28;1.63;;;9.40;99.90;;;;;;4992292;28;20129;-82
2024/01/04 04:09:52;;;;;;;9.82;1.90;;;9.30;99.90;;;;;;4993182;28;20026;-82
2024/01/04 04:12:18;;;;;;;6.30;2.22;;;9.40;99.90;;;;;;4996846;28;20057;-82
2024/01/04 04:14:44;;;;;;;8.88;2.03;;;9.40;99.90;;;;;;4994547;28;20168;-83
2024/01/04 04:17:09;;;;;;;11.05;2.22;;;9.30;99.90;;;;;;4995168;28;20030;-82
2024/01/04 04:19:35;;;;;;;6.65;1.75;;;9.30;99.90;;;;;;4992337;28;20030;-82
2024/01/04 04:22:01;;;;;;;7.57;2.00;;;9.30;99.90;;;;;;4995379;28;20057;-82
2024/01/04 04:24:26;;;;;;;3.80;1.48;;;9.30;99.90;;;;;;4992649;28;20129;-82
2024/01/04 04:26:52;;;;;;;6.57;1.38;;;9.30;99.90;;;;;;4993068;28;20085;-82
2024/01/04 04:29:18;;;;;;;8.35;1.90;;;9.30;99.90;;;;;;4992959;28;20437;-83
2024/01/04 04:31:43;;;;;;;8.25;2.17;;;9.40;99.90;;;;;;4997760;28;20057;-83
2024/01/04 04:34:09;;;;;;;5.22;1.80;;;9.30;99.90;;;;;;4998736;28;20085;-83
2024/01/04 04:36:35;;;;;;;7.57;1.70;;;9.40;99.90;;;;;;4991833;28;20045;-81
2024/01/04 04:39:02;;;;;;;7.20;1.50;;;9.40;99.90;;;;;;4991702;28;20043;-82
2024/01/04 04:41:28;;;;;;;7.85;1.88;;;9.50;99.90;;;;;;4991388;28;20382;-83
2024/01/04 04:43:54;;;;;;;5.60;1.67;;;9.50;99.90;;;;;;4995151;28;20080;-83
2024/01/04 04:46:20;;;;;;;6.53;1.60;;;9.50;99.90;;;;;;4995020;28;20034;-84
2024/01/04 04:48:46;;;;;;;5.32;2.10;;;9.60;99.90;;;;;;4993533;28;20088;-84
2024/01/04 04:51:11;;;;;;;5.40;1.80;;;9.60;99.90;;;;;;4997733;28;20030;-84
2024/01/04 04:53:37;;;;;;;9.93;2.03;;;9.60;99.90;;;;;;4995629;28;20511;-83
2024/01/04 04:56:03;;;;;;;5.00;1.90;;;9.60;99.90;;;;;;4996028;28;20037;-83
2024/01/04 04:58:32;;;;;;;6.20;1.80;;;9.60;99.90;;;;;;5001914;28;20049;-83
2024/01/04 05:00:58;;;;;;;5.78;1.75;;;9.60;99.90;;;;;;4989595;28;20038;-82
2024/01/04 05:03:23;;;;;;;7.68;1.95;;;9.60;99.90;;;;;;5008786;28;20026;-83
2024/01/04 05:05:49;;;;;;;7.55;2.17;;;9.60;99.90;;;;;;4998617;28;20019;-84
2024/01/04 05:08:15;;;;;;;5.85;1.70;;;9.60;99.90;;;;;;5041618;22;20057;-82
2024/01/04 05:10:41;;;;;;;6.72;1.80;;;9.50;99.90;;;;;;5016867;28;20022;-83
2024/01/04 05:13:07;;;;;;;6.88;2.38;;;9.40;99.90;;;;;;5018233;28;20046;-83
2024/01/04 05:15:33;;;;;;;7.65;2.10;;;9.40;99.90;;;;;;4993155;28;20030;-84
2024/01/04 05:17:58;;;;;;;7.00;1.80;;;9.30;99.90;;;;;;4983044;28;20121;-80
2024/01/04 05:20:24;;;;;;;4.85;1.42;;;9.30;99.90;;;;;;4978513;28;20108;-80
2024/01/04 05:22:50;;;;;;;3.63;1.48;;;9.30;99.90;;;;;;4995383;28;20027;-81
2024/01/04 05:25:15;;;;;;;3.97;1.42;;;9.40;99.90;;;;;;4995699;28;20389;-82
2024/01/04 05:27:41;;;;;;;3.20;1.30;;;9.40;99.90;;;;;;4978105;28;20046;-79
2024/01/04 05:30:08;;;;;;;3.10;1.17;;;9.50;99.90;;;;;;4995752;28;20039;-81
2024/01/04 05:32:37;;;;;;;6.20;1.00;;;9.50;99.90;;;;;;4994962;28;20037;-82
2024/01/04 05:35:03;;;;;;;4.78;1.30;;;9.60;99.90;;;;;;4996194;28;20030;-82
2024/01/04 05:37:29;;;;;;;2.50;1.10;;;9.60;99.90;;;;;;4995902;28;21143;-83
2024/01/04 05:39:55;;;;;;;5.90;1.63;;;9.60;99.90;;;;;;4996461;28;20034;-81
2024/01/04 05:42:20;;;;;;;3.03;1.23;;;9.60;99.90;;;;;;4996028;28;20430;-80
2024/01/04 05:44:46;;;;;;;2.90;1.20;;;9.70;99.90;;;;;;4995254;28;20034;-82
2024/01/04 05:47:11;;;;;;;3.65;1.48;;;9.70;99.90;;;;;;4994121;28;20400;-81
2024/01/04 05:49:44;;;;;;;6.65;1.42;;;9.70;99.90;;;;;;4993766;28;20477;-82
2024/01/04 05:52:09;;;;;;;4.65;1.33;;;9.60;99.90;;;;;;4994927;28;20544;-81
2024/01/04 05:54:35;;;;;;;5.97;1.48;;;9.70;99.90;;;;;;4977308;28;20081;-80
2024/01/04 05:57:01;;;;;;;5.07;1.15;;;9.70;99.90;;;;;;4991399;28;20393;-82
2024/01/04 05:59:26;;;;;;;3.75;1.35;;;9.70;99.90;;;;;;4994949;28;20037;-82
2024/01/04 06:01:52;;;;;;;2.88;1.42;;;9.70;99.90;;;;;;4993930;28;20034;-81
2024/01/04 06:04:18;;;;;;;4.68;1.00;;;9.80;99.90;;;;;;4994997;28;20042;-81
2024/01/04 06:06:44;;;;;;;3.55;1.50;;;9.80;99.90;;;;;;4994323;28;20070;-81
2024/01/04 06:09:10;;;;;;;3.35;1.30;;;9.80;99.90;;;;;;4993323;28;20109;-80
2024/01/04 06:11:38;;;;;;;3.38;1.73;;;9.80;99.90;;;;;;4994927;28;20022;-80
2024/01/04 06:14:05;;;;;;;5.45;2.20;;;9.80;99.90;;;;;;4994995;28;20130;-81
2024/01/04 06:16:31;;;;;;;2.83;1.35;;;9.90;99.90;;;;;;4991041;28;20038;-80
2024/01/04 06:18:58;;;;;;;4.60;2.00;;;9.90;99.90;;;;;;4993674;28;20380;-80
2024/01/04 06:21:23;;;;;;;3.83;1.60;;;9.90;99.90;;;;;;4993578;28;20031;-81
2024/01/04 06:23:50;;;;;;;6.65;2.00;;;9.90;99.90;;;;;;4994367;28;20089;-81
2024/01/04 06:26:19;;;;;;;7.55;2.08;;;9.90;99.90;;;;;;4974966;28;20497;-81
2024/01/04 06:28:45;;;;;;;4.53;1.90;;;9.90;99.90;;;;;;4993556;28;20369;-81
2024/01/04 06:31:11;;;;;;;4.13;2.00;;;9.90;99.90;;;;;;4993046;28;20030;-80
2024/01/04 06:33:36;;;;;;;5.53;1.75;;;9.90;99.90;;;;;;4993244;28;20184;-82
2024/01/04 06:36:02;;;;;;;5.95;1.70;;;9.90;99.90;;;;;;4994473;28;20109;-83
2024/01/04 06:38:28;;;;;;;8.68;2.22;;;10.00;99.90;;;;;;4992986;28;20108;-81
2024/01/04 06:40:58;;;;;;;3.95;2.15;;;10.00;99.90;;;;;;4993242;28;20457;-78
2024/01/04 06:43:24;;;;;;;6.57;2.20;;;10.00;99.90;;;;;;4993104;28;20035;-76
2024/01/04 06:45:50;;;;;;;3.70;1.40;;;10.00;99.90;;;;;;4992765;28;20104;-75
2024/01/04 06:48:16;;;;;;;5.22;1.80;;;10.00;99.90;;;;;;4992258;28;20042;-76
2024/01/04 06:50:43;;;;;;;5.53;1.85;;;10.00;99.90;;;;;;4992212;28;20038;-76
2024/01/04 06:53:11;;;;;;;4.00;1.52;;;10.10;99.90;;;;;;4991592;28;20038;-76
2024/01/04 06:55:37;;;;;;;4.40;1.40;;;10.10;99.90;;;;;;4993286;28;20073;-78
2024/01/04 06:58:04;;;;;;;2.70;1.50;;;10.10;99.90;;;;;;4993218;28;20034;-74
2024/01/04 07:00:29;;;;;;;5.18;1.50;;;10.20;99.90;;;;;;4993662;28;20519;-74
2024/01/04 07:02:55;;;;;;;5.75;1.40;;;10.20;99.90;;;;;;4993666;28;20283;-74
2024/01/04 07:05:21;;;;;;;6.18;2.05;;;10.30;99.90;;;;;;4993735;28;20037;-75
2024/01/04 07:07:47;;;;;;;7.43;1.83;;;10.30;99.90;;;;;;4993763;28;20050;-75
2024/01/04 07:10:12;;;;;;;3.60;1.60;;;10.30;99.90;;;;;;4992576;28;20037;-74
2024/01/04 07:12:40;;;;;;;5.15;2.15;;;10.30;99.90;;;;;;4992118;28;20061;-74
2024/01/04 07:15:06;;;;;;;3.38;1.90;;;10.30;99.90;;;;;;4992463;28;20046;-74
2024/01/04 07:17:32;;;;;;;4.07;1.55;;;10.30;99.90;;;;;;4975735;28;20045;-74
2024/01/04 07:19:57;;;;;;;4.68;1.67;;;10.30;99.90;;;;;;4993130;28;20034;-75
2024/01/04 07:22:23;;;;;;;4.88;1.85;;;10.30;99.90;;;;;;4992242;28;20045;-75
2024/01/04 07:24:49;;;;;;;3.80;2.03;;;10.30;99.90;;;;;;4990465;28;20503;-77
2024/01/04 07:27:15;;;;;;;4.78;1.90;;;10.30;99.90;;;;;;4984351;28;20057;-75
2024/01/04 07:29:40;;;;;;;4.22;1.58;;;10.20;99.90;;;;;;4985974;28;20113;-77
2024/01/04 07:32:06;;;;;;;4.22;1.92;;;10.30;99.90;;;;;;4987110;28;20067;-80
2024/01/04 07:34:36;;;;;;;3.35;1.88;;;10.30;99.90;;;;;;4991612;28;20030;-80
2024/01/04 07:37:02;;;;;;;3.58;1.67;;;10.30;99.90;;;;;;4994004;28;20046;-79
2024/01/04 07:39:28;;;;;;;5.72;1.60;;;10.20;99.90;;;;;;4993858;28;20034;-80
2024/01/04 07:41:53;;;;;;;2.83;1.77;;;10.20;99.90;;;;;;4993641;28;20034;-80
2024/01/04 07:44:19;;;;;;;3.60;1.67;;;10.10;99.90;;;;;;4992914;28;20089;-80
2024/01/04 07:46:45;;;;;;;6.80;1.58;;;10.10;99.90;;;;;;4991504;28;20476;-80
2024/01/04 07:49:10;;;;;;;3.53;1.67;;;10.10;99.90;;;;;;4993063;28;20061;-80
2024/01/04 07:51:38;;;;;;;3.50;1.45;;;10.10;99.90;;;;;;4992513;28;20147;-79
2024/01/04 07:54:04;;;;;;;2.55;1.20;;;10.00;99.90;;;;;;4993324;28;20084;-76
2024/01/04 07:56:29;;;;;;;5.03;1.70;;;10.10;99.90;;;;;;4988501;28;20046;-79
2024/01/04 07:58:55;;;;;;;3.05;1.20;;;10.10;99.90;;;;;;4973010;28;20220;-76
2024/01/04 08:01:21;;;;;;;7.70;2.03;;;10.10;99.90;;;;;;4993238;28;20391;-76
2024/01/04 08:03:46;;;;;;;5.50;1.73;;;10.10;99.90;;;;;;4991335;28;20058;-75
2024/01/04 08:06:12;;;;;;;4.00;1.60;;;10.10;99.90;;;;;;4989429;28;20038;-77
2024/01/04 08:08:38;;;;;;;6.82;1.75;;;10.10;99.90;;;;;;4984830;28;20133;-74
2024/01/04 08:11:03;;;;;;;4.55;1.20;;;10.10;99.90;;;;;;4984468;28;20054;-73
2024/01/04 08:13:29;;;;;;;4.82;1.80;;;10.10;99.90;;;;;;4974787;28;20125;-72
2024/01/04 08:15:55;;;;;;;5.13;1.27;;;10.10;99.90;;;;;;4992096;28;20050;-74
2024/01/04 08:18:21;;;;;;;3.40;1.50;;;10.10;99.90;;;;;;4992003;28;20417;-73
2024/01/04 08:20:50;;;;;;;5.30;2.10;;;10.20;99.90;;;;;;4991969;28;20101;-73
2024/01/04 08:23:15;;;;;;;4.10;1.80;;;10.20;99.90;;;;;;4988507;28;20109;-74
2024/01/04 08:25:41;;;;;;;6.35;1.85;;;10.20;99.90;;;;;;4989408;28;20105;-74
2024/01/04 08:28:10;;;;;;;4.93;1.65;;;10.20;99.90;;;;;;4990081;28;20460;-75
2024/01/04 08:30:37;;;;;;;4.00;1.90;;;10.10;99.90;;;;;;4991553;28;20038;-76
2024/01/04 08:33:02;;;;;;;5.50;2.00;;;10.20;99.90;;;;;;4992421;28;20022;-75
2024/01/04 08:35:28;;;;;;;4.40;1.95;;;10.10;99.90;;;;;;4991726;28;20037;-75
2024/01/04 08:37:54;;;;;;;5.22;1.90;;;10.20;99.90;;;;;;4991099;28;20034;-74
2024/01/04 08:40:20;;;;;;;2.28;1.40;;;10.20;99.90;;;;;;4991425;28;20047;-75
2024/01/04 08:42:46;;;;;;;2.25;1.60;;;10.20;99.90;;;;;;4992219;28;20105;-76
2024/01/04 08:45:12;;;;;;;3.42;1.67;;;10.20;99.90;;;;;;4991646;28;20480;-75
2024/01/04 08:47:38;;;;;;;3.15;1.80;;;10.30;99.90;;;;;;4989792;28;20081;-74
2024/01/04 08:50:04;;;;;;;3.00;1.65;;;10.30;99.90;;;;;;4991229;28;20026;-79
2024/01/04 08:52:31;;;;;;;6.50;1.77;;;10.30;99.90;;;;;;4991715;28;20503;-76
2024/01/04 08:54:57;;;;;;;4.10;1.55;;;10.40;99.90;;;;;;4990844;28;20157;-74
2024/01/04 08:57:23;;;;;;;2.30;1.02;;;10.40;99.90;;;;;;4990468;28;20030;-78
2024/01/04 08:59:49;;;;;;;3.97;1.70;;;10.50;99.90;;;;;;4990297;28;20374;-76
2024/01/04 09:02:15;;;;;;;6.22;2.15;;;10.50;99.90;;;;;;4992200;28;20121;-76
2024/01/04 09:04:40;;;;;;;5.40;1.75;;;10.50;99.90;;;;;;4990315;28;21056;-77
2024/01/04 09:07:08;;;;;;;4.78;1.95;;;10.50;99.90;;;;;;4984211;28;20096;-77
2024/01/04 09:09:34;;;;;;;2.72;2.03;;;10.50;99.90;;;;;;4989530;28;20403;-76
2024/01/04 09:12:00;;;;;;;1.80;1.13;;;10.50;99.90;;;;;;4992019;28;20031;-75
2024/01/04 09:14:26;;;;;;;2.92;1.38;;;10.60;99.90;;;;;;4990705;28;20424;-73
2024/01/04 09:16:52;;;;;;;2.85;1.38;;;10.60;99.90;;;;;;4989311;28;20030;-73
2024/01/04 09:19:19;;;;;;;3.28;1.50;;;10.50;99.90;;;;;;4983890;28;20039;-74
2024/01/04 09:21:49;;;;;;;5.15;1.50;;;10.50;99.90;;;;;;4986019;28;20105;-75
2024/01/04 09:24:17;;;;;;;3.72;1.40;;;10.50;99.90;;;;;;4987672;28;20420;-74
2024/01/04 09:26:44;;;;;;;3.97;1.50;;;10.50;99.90;;;;;;4990287;28;20034;-75
2024/01/04 09:29:12;;;;;;;4.25;1.70;;;10.50;99.90;;;;;;4989065;28;20065;-74
2024/01/04 09:31:38;;;;;;;3.67;1.67;;;10.50;99.90;;;;;;4988406;28;20034;-72
2024/01/04 09:34:04;;;;;;;4.65;2.15;;;10.60;99.90;;;;;;4989809;28;20140;-74
2024/01/04 09:36:30;;;;;;;3.90;2.20;;;10.60;99.90;;;;;;4985439;28;20205;-74
2024/01/04 09:38:56;;;;;;;4.82;2.53;;;10.60;99.90;;;;;;4990899;28;20073;-73
2024/01/04 09:41:31;;;;;;;4.00;2.28;;;10.60;99.90;;;;;;4990478;28;20034;-75
2024/01/04 09:44:00;;;;;;;4.85;2.00;;;10.60;99.90;;;;;;4994583;28;20065;-75
2024/01/04 09:46:35;;;;;;;3.45;2.72;;;10.60;99.90;;;;;;4990132;28;20053;-75
2024/01/04 09:49:02;;;;;;;2.97;2.10;;;10.60;99.90;;;;;;4992029;28;20034;-76
2024/01/04 09:51:29;;;;;;;4.00;2.60;;;10.70;99.90;;;;;;4992219;28;20030;-75
2024/01/04 09:53:58;;;;;;;5.25;2.63;;;10.70;99.90;;;;;;4989101;28;20031;-75
2024/01/04 09:56:25;;;;;;;7.50;2.75;;;10.70;99.90;;;;;;4989365;28;20130;-83
2024/01/04 09:58:52;;;;;;;4.47;3.20;;;10.70;99.90;;;;;;4995137;28;20042;-82
2024/01/04 10:01:28;;;;;;;5.65;2.75;;;10.80;99.90;;;;;;4996415;28;20065;-83
2024/01/04 10:03:59;;;;;;;6.32;3.63;;;10.80;99.90;;;;;;4995966;28;20033;-82
2024/01/04 10:06:30;;;;;;;5.50;3.30;;;10.80;99.90;;;;;;5002369;28;20061;-83
2024/01/04 10:09:35;;;;;;;8.23;3.45;;;10.80;99.90;;;;;;4999803;28;20051;-86
2024/01/04 10:12:08;;;;;;;5.60;3.33;;;10.80;99.90;;;;;;4993266;28;20037;-86
2024/01/04 10:14:36;;;;;;;5.03;3.65;;;10.80;99.90;;;;;;4992647;28;20084;-84
2024/01/04 10:17:02;;;;;;;5.55;3.65;;;10.80;99.90;;;;;;4998279;28;20041;-85
2024/01/04 10:19:30;;;;;;;5.72;2.65;;;10.80;99.90;;;;;;4997665;28;20030;-84
2024/01/04 10:22:03;;;;;;;4.97;3.40;;;10.80;99.90;;;;;;4993251;28;20030;-81
2024/01/04 10:24:37;;;;;;;5.20;2.95;;;10.80;99.90;;;;;;4997344;28;20046;-81
2024/01/04 10:27:05;;;;;;;6.33;3.43;;;10.80;99.90;;;;;;4996927;28;20030;-79
2024/01/04 10:29:31;;;;;;;8.35;3.88;;;10.80;99.90;;;;;;4997815;28;20033;-78
2024/01/04 10:32:02;;;;;;;6.40;3.70;;;10.80;99.90;;;;;;4997315;28;20036;-81
2024/01/04 10:34:28;;;;;;;6.20;2.97;;;10.70;99.90;;;;;;4979382;28;20065;-82
2024/01/04 10:36:57;;;;;;;8.13;3.42;;;10.70;99.90;;;;;;4995950;28;20034;-81
2024/01/04 10:39:22;;;;;;;7.65;3.42;;;10.70;99.90;;;;;;4994845;28;20030;-81
2024/01/04 10:42:01;;;;;;;3.97;2.38;;;10.60;99.90;;;;;;4994377;28;20037;-80
2024/01/04 10:44:28;;;;;;;4.72;2.60;;;10.60;99.90;;;;;;4993013;28;20454;-81
2024/01/04 10:46:55;;;;;;;6.50;2.08;;;10.60;99.90;;;;;;4994560;28;20445;-83
2024/01/04 10:49:23;;;;;;;5.22;2.10;;;10.60;99.90;;;;;;4993971;28;20076;-81
2024/01/04 10:51:58;;;;;;;5.72;2.28;;;10.50;99.90;;;;;;4993698;28;20065;-79
2024/01/04 10:54:34;;;;;;;4.30;1.63;;;10.50;99.90;;;;;;4992255;28;20030;-81
2024/01/04 10:57:01;;;;;;;5.30;1.52;;;10.50;99.90;;;;;;4993972;28;20065;-80
2024/01/04 10:59:29;;;;;;;2.88;1.50;;;10.40;99.90;;;;;;4993524;28;20057;-80
2024/01/04 11:01:57;;;;;;;3.00;1.00;;;10.40;99.90;;;;;;4992842;28;20504;-80
2024/01/04 11:04:23;;;;;;;3.00;1.02;;;10.40;99.90;;;;;;4992869;28;20034;-81
2024/01/04 11:06:52;;;;;;;3.38;1.00;;;10.40;99.90;;;;;;4993934;28;20031;-82
2024/01/04 11:09:22;;;;;;;5.55;1.17;;;10.40;99.90;;;;;;4992241;28;20176;-81
2024/01/04 11:11:52;;;;;;;6.40;1.00;;;10.40;99.90;;;;;;4990137;28;20031;-81
2024/01/04 11:14:27;;;;;;;2.92;0.98;;;10.30;99.90;;;;;;4993080;28;20113;-81
2024/01/04 11:17:17;;;;;;;6.57;0.93;;;10.30;99.90;;;;;;4974939;28;20038;-80
2024/01/04 11:20:08;;;;;;;2.70;0.70;;;10.30;99.90;;;;;;4993869;28;20054;-75
2024/01/04 11:22:42;;;;;;;2.55;0.70;;;10.30;99.90;;;;;;4991609;28;20023;-74
2024/01/04 11:25:30;;;;;;;2.65;0.80;;;10.30;99.90;;;;;;4990502;28;20307;-76
2024/01/04 11:27:57;;;;;;;2.38;0.77;;;10.30;99.90;;;;;;4993127;28;20514;-77
2024/01/04 11:30:22;;;;;;;6.40;0.93;;;10.40;99.90;;;;;;4993406;28;20027;-76
2024/01/04 11:32:48;;;;;;;5.43;1.65;;;10.40;99.90;;;;;;4993404;28;20041;-76
2024/01/04 11:35:15;;;;;;;4.65;1.13;;;10.40;99.90;;;;;;4991112;28;20330;-76
2024/01/04 11:37:45;;;;;;;3.17;1.00;;;10.40;99.90;;;;;;4992833;28;20042;-74
2024/01/04 11:40:11;;;;;;;3.05;0.80;;;10.50;99.90;;;;;;4990914;28;20069;-75
2024/01/04 11:42:38;;;;;;;5.18;0.93;;;10.60;99.90;;;;;;4992344;28;20065;-75
2024/01/04 11:45:13;;;;;;;3.10;0.47;;;10.60;99.90;;;;;;4992186;28;20057;-76
2024/01/04 11:47:39;;;;;;;3.88;0.73;;;10.60;99.90;;;;;;4992915;28;20480;-76
2024/01/04 11:50:26;;;;;;;2.20;0.77;;;10.60;99.90;;;;;;4992660;28;20034;-75
2024/01/04 11:53:12;;;;;;;4.13;0.88;;;10.60;99.90;;;;;;4988400;28;20054;-77
2024/01/04 11:55:38;;;;;;;4.00;0.80;;;10.60;99.90;;;;;;4991899;28;20031;-74
2024/01/04 11:58:10;;;;;;;2.63;0.73;;;10.60;99.90;;;;;;4991205;28;20085;-74
2024/01/04 12:00:42;;;;;;;2.95;0.55;;;10.60;99.90;;;;;;4991776;28;20030;-75
2024/01/04 12:03:16;;;;;;;6.10;1.20;;;10.60;99.90;;;;;;4989689;28;20069;-73
2024/01/04 12:05:45;;;;;;;4.35;1.20;;;10.60;99.90;;;;;;4992453;28;20141;-76
2024/01/04 12:08:32;;;;;;;4.80;1.00;;;10.60;99.90;;;;;;4990523;28;20038;-78
2024/01/04 12:11:03;;;;;;;3.97;0.95;;;10.50;99.90;;;;;;4991679;28;20030;-77
2024/01/04 12:13:30;;;;;;;2.17;0.80;;;10.40;99.90;;;;;;4991402;28;20034;-77
2024/01/04 12:15:55;;;;;;;3.08;1.20;;;10.40;99.90;;;;;;4993557;28;20469;-77
2024/01/04 12:18:21;;;;;;;4.60;1.10;;;10.40;99.90;;;;;;4993595;28;20042;-77
2024/01/04 12:20:47;;;;;;;8.82;1.60;;;10.40;99.90;;;;;;4992311;28;20022;-78
2024/01/04 12:23:13;;;;;;;2.58;1.00;;;10.50;99.90;;;;;;4993115;28;20035;-78
2024/01/04 12:25:40;;;;;;;6.00;1.20;;;10.50;99.90;;;;;;4993814;28;20081;-79
2024/01/04 12:28:07;;;;;;;5.85;1.23;;;10.50;99.90;;;;;;4976639;28;20044;-78
2024/01/04 12:30:33;;;;;;;3.55;1.20;;;10.50;99.90;;;;;;4977393;28;20054;-79
2024/01/04 12:33:03;;;;;;;3.70;1.23;;;10.40;99.90;;;;;;4978682;28;20038;-80
2024/01/04 12:35:29;;;;;;;2.53;1.05;;;10.40;99.90;;;;;;4995069;28;20040;-78
2024/01/04 12:38:05;;;;;;;4.93;1.45;;;10.40;99.90;;;;;;4991519;28;20121;-79
2024/01/04 12:40:45;;;;;;;4.93;1.30;;;10.40;99.90;;;;;;4988313;28;20034;-78
2024/01/04 12:43:15;;;;;;;5.47;1.48;;;10.40;99.90;;;;;;4982182;28;20488;-78
2024/01/04 12:45:41;;;;;;;4.80;1.40;;;10.40;99.90;;;;;;4979566;28;20031;-78
2024/01/04 12:48:07;;;;;;;4.75;1.63;;;10.40;99.90;;;;;;4975244;28;20480;-74
2024/01/04 12:50:37;;;;;;;2.88;1.17;;;10.40;99.90;;;;;;4993603;28;20109;-73
2024/01/04 12:53:05;;;;;;;3.80;1.13;;;10.40;99.90;;;;;;4991901;28;20046;-73